createdAt,value
2022-09-21T00:00:33.224Z,9.10
2022-09-21T00:03:20.916Z,9.10
2022-09-21T00:06:10.710Z,9.00
2022-09-21T00:08:58.376Z,9.10
2022-09-21T00:11:48.351Z,9.00
2022-09-21T00:14:36.915Z,10.80
2022-09-21T00:17:25.454Z,9.00
2022-09-21T00:20:14.531Z,8.90
2022-09-21T00:23:03.244Z,8.90
2022-09-21T00:25:51.002Z,8.70
2022-09-21T00:28:44.403Z,8.70
2022-09-21T00:31:32.925Z,8.80
2022-09-21T00:34:21.542Z,8.70
2022-09-21T00:37:10.613Z,8.70
2022-09-21T00:39:59.465Z,9.10
2022-09-21T00:42:48.316Z,8.80
2022-09-21T00:45:38.530Z,8.70
2022-09-21T00:48:29.008Z,8.70
2022-09-21T00:51:16.918Z,8.70
2022-09-21T00:54:07.142Z,9.40
2022-09-21T00:56:56.000Z,8.60
2022-09-21T00:59:47.346Z,8.40
2022-09-21T01:02:36.312Z,8.50
2022-09-21T01:05:25.251Z,8.40
2022-09-21T01:08:13.485Z,8.40
2022-09-21T01:11:12.830Z,8.30
2022-09-21T01:14:10.465Z,8.30
2022-09-21T01:17:03.979Z,8.20
2022-09-21T01:20:09.692Z,8.10
2022-09-21T01:23:06.768Z,8.10
2022-09-21T01:26:01.568Z,8.10
2022-09-21T01:29:13.900Z,8.20
2022-09-21T01:32:06.577Z,8.20
2022-09-21T01:34:57.000Z,8.30
2022-09-21T01:37:46.892Z,8.20
2022-09-21T01:40:36.513Z,8.20
2022-09-21T01:43:27.266Z,8.20
2022-09-21T01:46:18.188Z,8.20
2022-09-21T01:49:09.184Z,8.20
2022-09-21T01:52:04.707Z,8.20
2022-09-21T01:54:56.114Z,8.20
2022-09-21T01:57:47.147Z,8.00
2022-09-21T02:00:36.739Z,8.00
2022-09-21T02:03:29.687Z,8.00
2022-09-21T02:06:17.847Z,8.00
2022-09-21T02:09:06.197Z,8.70
2022-09-21T02:11:54.101Z,8.00
2022-09-21T02:14:41.457Z,8.00
2022-09-21T02:17:34.566Z,8.10
2022-09-21T02:20:25.664Z,8.00
2022-09-21T02:23:17.136Z,8.20
2022-09-21T02:26:06.783Z,8.70
2022-09-21T02:28:59.634Z,8.00
2022-09-21T02:31:50.764Z,8.00
2022-09-21T02:34:45.841Z,7.90
2022-09-21T02:37:37.250Z,7.90
2022-09-21T02:40:27.129Z,7.80
2022-09-21T02:43:22.723Z,8.60
2022-09-21T02:46:13.127Z,7.70
2022-09-21T02:49:04.605Z,7.60
2022-09-21T02:51:53.591Z,8.50
2022-09-21T02:54:44.327Z,7.30
2022-09-21T02:57:32.479Z,7.30
2022-09-21T03:00:21.133Z,7.20
2022-09-21T03:03:18.715Z,7.10
2022-09-21T03:06:09.365Z,7.10
2022-09-21T03:08:59.378Z,7.10
2022-09-21T03:11:49.770Z,7.00
2022-09-21T03:14:37.341Z,7.00
2022-09-21T03:17:25.933Z,7.00
2022-09-21T03:20:13.201Z,7.00
2022-09-21T03:23:01.200Z,7.00
2022-09-21T03:25:48.966Z,6.90
2022-09-21T03:28:38.540Z,6.90
2022-09-21T03:31:26.214Z,7.80
2022-09-21T03:34:14.629Z,5.20
2022-09-21T03:37:02.133Z,7.10
2022-09-21T03:39:50.735Z,7.10
2022-09-21T03:42:38.391Z,7.10
2022-09-21T03:45:30.136Z,7.10
2022-09-21T03:48:18.081Z,7.10
2022-09-21T03:51:06.588Z,7.10
2022-09-21T03:53:54.059Z,7.10
2022-09-21T03:56:41.801Z,7.00
2022-09-21T03:59:29.463Z,7.00
2022-09-21T04:02:22.953Z,7.00
2022-09-21T04:05:11.130Z,6.90
2022-09-21T04:07:59.192Z,6.80
2022-09-21T04:10:46.805Z,7.80
2022-09-21T04:13:35.596Z,6.80
2022-09-21T04:16:27.305Z,6.90
2022-09-21T04:19:17.908Z,7.00
2022-09-21T04:22:06.758Z,6.90
2022-09-21T04:24:54.318Z,6.80
2022-09-21T04:27:42.397Z,7.40
2022-09-21T04:30:34.305Z,6.60
2022-09-21T04:33:25.292Z,6.70
2022-09-21T04:36:14.656Z,7.60
2022-09-21T04:39:02.361Z,8.60
2022-09-21T04:41:50.215Z,6.60
2022-09-21T04:44:38.082Z,6.50
2022-09-21T04:47:27.875Z,6.50
2022-09-21T04:50:16.476Z,6.50
2022-09-21T04:53:07.447Z,6.50
2022-09-21T04:55:56.326Z,8.80
2022-09-21T04:58:45.219Z,6.50
2022-09-21T05:01:33.433Z,6.40
2022-09-21T05:04:21.124Z,4.80
2022-09-21T05:07:09.082Z,6.40
2022-09-21T05:10:05.022Z,5.80
2022-09-21T05:12:53.797Z,6.50
2022-09-21T05:15:41.923Z,6.50
2022-09-21T05:18:31.200Z,6.80
2022-09-21T05:21:19.491Z,6.70
2022-09-21T05:24:12.192Z,6.70
2022-09-21T05:27:01.277Z,6.70
2022-09-21T05:29:49.346Z,6.80
2022-09-21T05:32:42.968Z,6.70
2022-09-21T05:35:36.969Z,6.40
2022-09-21T05:38:27.432Z,6.70
2022-09-21T05:41:15.640Z,7.50
2022-09-21T05:44:06.227Z,6.50
2022-09-21T05:46:59.093Z,6.50
2022-09-21T05:49:50.291Z,7.30
2022-09-21T05:52:42.381Z,5.80
2022-09-21T05:55:35.469Z,6.40
2022-09-21T05:58:30.945Z,8.10
2022-09-21T06:01:29.812Z,6.60
2022-09-21T06:04:18.071Z,6.60
2022-09-21T06:07:06.750Z,6.80
2022-09-21T06:09:55.185Z,6.80
2022-09-21T06:12:46.349Z,6.70
2022-09-21T06:15:38.892Z,6.60
2022-09-21T06:18:28.952Z,7.00
2022-09-21T06:21:26.056Z,5.90
2022-09-21T06:24:18.017Z,8.30
2022-09-21T06:27:12.453Z,7.90
2022-09-21T06:30:08.798Z,6.80
2022-09-21T06:32:59.880Z,6.80
2022-09-21T06:35:53.353Z,6.80
2022-09-21T06:38:42.589Z,6.80
2022-09-21T06:41:34.823Z,6.90
2022-09-21T06:44:25.007Z,7.50
2022-09-21T06:47:27.419Z,7.00
2022-09-21T06:50:20.005Z,7.10
2022-09-21T06:53:12.719Z,6.90
2022-09-21T06:56:07.803Z,7.10
2022-09-21T06:58:59.107Z,7.40
2022-09-21T07:01:50.712Z,7.30
2022-09-21T07:04:43.541Z,6.60
2022-09-21T07:07:35.338Z,7.30
2022-09-21T07:10:26.582Z,8.40
2022-09-21T07:13:16.537Z,7.40
2022-09-21T07:16:05.507Z,7.40
2022-09-21T07:18:56.927Z,7.60
2022-09-21T07:21:45.239Z,8.60
2022-09-21T07:24:33.175Z,7.70
2022-09-21T07:27:22.365Z,7.80
2022-09-21T07:30:10.665Z,7.80
2022-09-21T07:32:58.904Z,7.90
2022-09-21T07:35:52.144Z,7.20
2022-09-21T07:38:40.890Z,8.30
2022-09-21T07:41:28.572Z,7.60
2022-09-21T07:44:18.456Z,8.20
2022-09-21T07:47:06.568Z,8.30
2022-09-21T07:49:54.116Z,8.30
2022-09-21T07:52:41.701Z,8.50
2022-09-21T07:55:29.178Z,8.60
2022-09-21T07:58:34.752Z,8.80
2022-09-21T08:01:24.418Z,8.90
2022-09-21T08:04:12.325Z,9.00
2022-09-21T08:06:59.698Z,9.10
2022-09-21T08:09:49.623Z,9.90
2022-09-21T08:12:37.233Z,9.50
2022-09-21T08:15:46.935Z,10.10
2022-09-21T08:18:34.165Z,9.80
2022-09-21T08:21:22.671Z,10.00
2022-09-21T08:24:10.882Z,10.10
2022-09-21T08:26:58.482Z,10.20
2022-09-21T08:29:46.566Z,10.20
2022-09-21T08:32:50.550Z,10.30
2022-09-21T08:35:43.308Z,10.70
2022-09-21T08:38:34.077Z,10.60
2022-09-21T08:41:26.245Z,10.70
2022-09-21T08:44:16.852Z,11.90
2022-09-21T08:47:06.269Z,10.90
2022-09-21T08:49:56.593Z,10.90
2022-09-21T08:52:47.887Z,11.20
2022-09-21T08:55:35.971Z,11.30
2022-09-21T08:58:26.010Z,11.60
2022-09-21T09:01:22.977Z,11.60
2022-09-21T09:04:34.633Z,11.70
2022-09-21T09:07:30.002Z,12.00
2022-09-21T09:10:27.564Z,11.90
2022-09-21T09:13:32.586Z,12.00
2022-09-21T09:16:27.482Z,12.00
2022-09-21T09:19:20.650Z,12.00
2022-09-21T09:22:09.344Z,12.30
2022-09-21T09:25:02.492Z,12.20
2022-09-21T09:27:53.769Z,12.60
2022-09-21T09:30:41.598Z,12.50
2022-09-21T09:33:36.091Z,12.60
2022-09-21T09:36:54.034Z,12.80
2022-09-21T09:39:35.496Z,12.90
2022-09-21T09:42:27.750Z,13.00
2022-09-21T09:45:28.322Z,13.00
2022-09-21T09:48:26.745Z,13.20
2022-09-21T09:51:14.849Z,13.30
2022-09-21T09:54:06.888Z,13.50
2022-09-21T09:56:57.791Z,13.70
2022-09-21T09:59:53.327Z,13.90
2022-09-21T10:02:49.558Z,13.90
2022-09-21T10:05:38.312Z,14.00
2022-09-21T10:08:42.279Z,14.10
2022-09-21T10:11:37.694Z,14.20
2022-09-21T10:14:26.591Z,15.30
2022-09-21T10:17:17.794Z,14.20
2022-09-21T10:20:08.435Z,14.30
2022-09-21T10:22:56.705Z,14.30
2022-09-21T10:25:44.287Z,14.30
2022-09-21T10:28:32.114Z,14.30
2022-09-21T10:31:25.667Z,14.20
2022-09-21T10:34:14.996Z,14.30
2022-09-21T10:37:07.566Z,14.10
2022-09-21T10:39:56.259Z,14.00
2022-09-21T10:42:43.923Z,14.00
2022-09-21T10:45:31.821Z,14.00
2022-09-21T10:48:21.501Z,14.10
2022-09-21T10:51:22.009Z,14.30
2022-09-21T10:54:11.506Z,14.30
2022-09-21T10:57:00.922Z,14.50
2022-09-21T10:59:51.402Z,14.70
2022-09-21T11:02:39.898Z,14.90
2022-09-21T11:05:29.025Z,15.00
2022-09-21T11:08:20.724Z,15.10
2022-09-21T11:11:14.160Z,15.40
2022-09-21T11:14:06.213Z,15.50
2022-09-21T11:16:56.979Z,15.70
2022-09-21T11:19:50.149Z,15.50
2022-09-21T11:22:42.019Z,16.90
2022-09-21T11:25:33.871Z,15.40
2022-09-21T11:28:24.539Z,15.30
2022-09-21T11:31:28.684Z,15.30
2022-09-21T11:34:32.625Z,15.20
2022-09-21T11:37:29.018Z,15.10
2022-09-21T11:40:24.031Z,15.00
2022-09-21T11:43:21.906Z,15.00
2022-09-21T11:46:19.098Z,14.80
2022-09-21T11:49:20.775Z,14.70
2022-09-21T11:52:15.339Z,14.60
2022-09-21T11:55:09.621Z,14.50
2022-09-21T11:58:03.324Z,14.40
2022-09-21T12:00:57.772Z,14.40
2022-09-21T12:03:50.956Z,14.30
2022-09-21T12:06:44.454Z,14.30
2022-09-21T12:09:48.371Z,14.30
2022-09-21T12:12:39.562Z,14.30
2022-09-21T12:15:36.195Z,14.30
2022-09-21T12:18:27.923Z,14.60
2022-09-21T12:21:20.041Z,15.10
2022-09-21T12:24:13.824Z,15.50
2022-09-21T12:27:04.032Z,15.90
2022-09-21T12:29:54.103Z,16.40
2022-09-21T12:32:49.660Z,16.60
2022-09-21T12:35:39.510Z,16.80
2022-09-21T12:41:28.928Z,16.70
2022-09-21T12:44:18.745Z,16.40
2022-09-21T12:47:10.355Z,16.20
2022-09-21T12:50:00.215Z,16.00
2022-09-21T12:52:48.239Z,15.80
2022-09-21T12:55:45.701Z,16.00
2022-09-21T12:58:41.319Z,15.50
2022-09-21T13:01:32.896Z,15.40
2022-09-21T13:04:28.600Z,15.60
2022-09-21T13:07:39.944Z,15.70
2022-09-21T13:10:41.157Z,16.00
2022-09-21T13:13:30.748Z,16.20
2022-09-21T13:16:25.790Z,16.50
2022-09-21T13:19:20.388Z,16.90
2022-09-21T13:22:14.657Z,16.70
2022-09-21T13:25:07.037Z,16.80
2022-09-21T13:28:03.916Z,17.10
2022-09-21T13:31:36.716Z,17.00
2022-09-21T13:34:27.691Z,17.20
2022-09-21T13:37:27.574Z,17.60
2022-09-21T13:40:42.022Z,17.70
2022-09-21T13:43:58.629Z,17.90
2022-09-21T13:46:57.934Z,17.70
2022-09-21T13:49:57.072Z,18.00
2022-09-21T13:52:52.325Z,18.20
2022-09-21T13:55:41.894Z,18.20
2022-09-21T13:58:32.260Z,18.20
2022-09-21T14:01:45.290Z,18.60
2022-09-21T14:04:31.998Z,18.30
2022-09-21T14:07:19.628Z,18.30
2022-09-21T14:10:11.862Z,18.30
2022-09-21T14:13:03.836Z,17.40
2022-09-21T14:15:52.147Z,17.80
2022-09-21T14:18:40.262Z,17.40
2022-09-21T14:21:29.964Z,17.10
2022-09-21T14:24:23.138Z,16.90
2022-09-21T14:27:16.514Z,16.60
2022-09-21T14:30:07.792Z,16.50
2022-09-21T14:33:06.989Z,16.40
2022-09-21T14:35:55.953Z,16.30
2022-09-21T14:38:52.413Z,16.20
2022-09-21T14:41:43.567Z,16.20
2022-09-21T14:44:32.153Z,16.20
2022-09-21T14:47:44.670Z,16.30
2022-09-21T14:50:33.512Z,16.20
2022-09-21T14:53:39.490Z,16.60
2022-09-21T14:56:40.777Z,17.00
2022-09-21T14:59:48.488Z,17.20
2022-09-21T15:02:37.596Z,17.30
2022-09-21T15:05:31.355Z,17.30
2022-09-21T15:08:51.395Z,17.50
2022-09-21T15:11:43.626Z,17.40
2022-09-21T15:14:35.652Z,17.30
2022-09-21T15:17:26.683Z,17.40
2022-09-21T15:20:18.387Z,17.50
2022-09-21T15:23:19.162Z,17.60
2022-09-21T15:26:09.378Z,17.50
2022-09-21T15:29:14.647Z,17.20
2022-09-21T15:32:02.542Z,17.00
2022-09-21T15:34:51.675Z,16.90
2022-09-21T15:37:40.641Z,16.90
2022-09-21T15:40:30.170Z,17.10
2022-09-21T15:43:21.124Z,17.30
2022-09-21T15:46:14.767Z,17.40
2022-09-21T15:49:03.779Z,17.20
2022-09-21T15:51:54.053Z,17.30
2022-09-21T15:54:43.467Z,17.30
2022-09-21T15:57:38.763Z,17.40
2022-09-21T16:00:27.519Z,17.40
2022-09-21T16:03:20.598Z,17.60
2022-09-21T16:06:19.256Z,17.70
2022-09-21T16:09:21.203Z,17.70
2022-09-21T16:12:39.517Z,17.50
2022-09-21T16:15:29.000Z,17.50
2022-09-21T16:18:30.389Z,17.60
2022-09-21T16:21:22.180Z,18.00
2022-09-21T16:24:12.623Z,18.00
2022-09-21T16:27:01.530Z,17.80
2022-09-21T16:29:50.292Z,17.60
2022-09-21T16:32:38.222Z,17.40
2022-09-21T16:35:29.117Z,17.10
2022-09-21T16:38:17.001Z,17.00
2022-09-21T16:41:05.405Z,16.80
2022-09-21T16:43:58.376Z,16.70
2022-09-21T16:46:46.533Z,16.60
2022-09-21T16:49:35.753Z,16.60
2022-09-21T16:52:25.188Z,16.40
2022-09-21T16:55:12.524Z,16.40
2022-09-21T16:58:00.570Z,16.20
2022-09-21T17:00:49.589Z,16.10
2022-09-21T17:03:37.158Z,16.00
2022-09-21T17:06:25.121Z,15.80
2022-09-21T17:09:20.834Z,15.60
2022-09-21T17:12:09.431Z,15.40
2022-09-21T17:14:57.593Z,15.20
2022-09-21T17:17:45.362Z,15.00
2022-09-21T17:20:34.902Z,14.80
2022-09-21T17:23:27.765Z,14.50
2022-09-21T17:26:17.853Z,14.40
2022-09-21T17:29:07.496Z,14.10
2022-09-21T17:31:56.719Z,14.00
2022-09-21T17:34:46.158Z,13.80
2022-09-21T17:37:38.429Z,13.60
2022-09-21T17:40:26.436Z,13.50
2022-09-21T17:43:22.298Z,13.50
2022-09-21T17:46:14.215Z,13.40
2022-09-21T17:49:02.437Z,13.40
2022-09-21T17:52:06.862Z,13.20
2022-09-21T17:54:54.720Z,13.10
2022-09-21T17:57:48.370Z,13.00
2022-09-21T18:00:42.723Z,12.90
2022-09-21T18:03:32.468Z,12.90
2022-09-21T18:06:20.035Z,12.80
2022-09-21T18:09:08.937Z,12.70
2022-09-21T18:12:03.802Z,12.60
2022-09-21T18:14:54.790Z,12.50
2022-09-21T18:17:49.679Z,12.50
2022-09-21T18:20:42.555Z,12.40
2022-09-21T18:23:34.163Z,12.40
2022-09-21T18:26:23.647Z,12.40
2022-09-21T18:29:38.839Z,12.30
2022-09-21T18:32:39.654Z,12.30
2022-09-21T18:35:44.826Z,12.20
2022-09-21T18:38:34.674Z,12.20
2022-09-21T18:41:31.658Z,12.10
2022-09-21T18:44:25.324Z,12.00
2022-09-21T18:47:16.428Z,12.00
2022-09-21T18:50:07.642Z,11.80
2022-09-21T18:52:59.794Z,11.70
2022-09-21T18:55:50.364Z,11.70
2022-09-21T18:58:38.808Z,11.60
2022-09-21T19:01:29.543Z,11.60
2022-09-21T19:04:19.597Z,11.50
2022-09-21T19:07:10.639Z,11.50
2022-09-21T19:10:05.397Z,11.50
2022-09-21T19:12:59.107Z,11.40
2022-09-21T19:16:06.649Z,11.40
2022-09-21T19:18:58.228Z,11.30
2022-09-21T19:21:49.281Z,11.30
2022-09-21T19:24:39.422Z,11.30
2022-09-21T19:27:34.325Z,11.20
2022-09-21T19:30:21.953Z,11.20
2022-09-21T19:33:45.575Z,11.20
2022-09-21T19:36:28.085Z,11.20
2022-09-21T19:39:15.746Z,11.20
2022-09-21T19:42:09.161Z,11.20
2022-09-21T19:45:06.588Z,11.10
2022-09-21T19:47:54.664Z,11.00
2022-09-21T19:50:46.971Z,10.90
2022-09-21T19:53:51.804Z,10.80
2022-09-21T19:57:00.935Z,10.70
2022-09-21T19:59:51.477Z,10.70
2022-09-21T20:02:44.997Z,10.60
2022-09-21T20:05:35.233Z,10.50
2022-09-21T20:08:27.536Z,10.50
2022-09-21T20:11:18.041Z,10.40
2022-09-21T20:14:17.510Z,10.30
2022-09-21T20:17:10.599Z,10.30
2022-09-21T20:20:05.973Z,10.30
2022-09-21T20:22:56.407Z,10.20
2022-09-21T20:25:48.644Z,10.20
2022-09-21T20:28:38.525Z,10.10
2022-09-21T20:31:27.014Z,10.10
2022-09-21T20:34:14.635Z,10.60
2022-09-21T20:37:05.626Z,10.00
2022-09-21T20:39:52.882Z,10.00
2022-09-21T20:42:40.941Z,9.90
2022-09-21T20:45:29.865Z,10.00
2022-09-21T20:48:17.493Z,10.00
2022-09-21T20:51:06.217Z,9.90
2022-09-21T20:53:55.814Z,9.90
2022-09-21T20:56:44.841Z,9.80
2022-09-21T20:59:32.485Z,9.80
2022-09-21T21:02:19.621Z,9.80
2022-09-21T21:05:08.064Z,9.80
2022-09-21T21:07:55.414Z,9.70
2022-09-21T21:10:47.880Z,9.70
2022-09-21T21:13:35.531Z,9.60
2022-09-21T21:16:24.086Z,9.60
2022-09-21T21:19:12.476Z,9.50
2022-09-21T21:22:00.019Z,9.40
2022-09-21T21:24:47.346Z,9.50
2022-09-21T21:27:36.430Z,9.40
2022-09-21T21:30:25.263Z,9.50
2022-09-21T21:33:12.948Z,9.50
2022-09-21T21:36:04.728Z,9.50
2022-09-21T21:38:52.708Z,9.50
2022-09-21T21:41:42.959Z,9.70
2022-09-21T21:44:33.643Z,9.20
2022-09-21T21:47:38.860Z,9.30
2022-09-21T21:50:26.809Z,9.20
2022-09-21T21:53:14.746Z,9.10
2022-09-21T21:56:05.819Z,9.00
2022-09-21T21:58:53.465Z,9.00
2022-09-21T22:01:42.420Z,9.00
2022-09-21T22:04:29.837Z,9.00
2022-09-21T22:07:17.584Z,9.00
2022-09-21T22:10:05.006Z,9.20
2022-09-21T22:12:52.665Z,9.00
2022-09-21T22:15:40.804Z,9.00
2022-09-21T22:18:29.908Z,9.00
2022-09-21T22:21:18.230Z,9.00
2022-09-21T22:24:06.366Z,9.00
2022-09-21T22:26:54.158Z,8.90
2022-09-21T22:29:41.752Z,8.80
2022-09-21T22:32:29.009Z,8.70
2022-09-21T22:35:18.167Z,8.70
2022-09-21T22:38:07.961Z,8.70
2022-09-21T22:40:55.269Z,8.60
2022-09-21T22:43:42.479Z,8.50
2022-09-21T22:46:31.880Z,8.50
2022-09-21T22:49:21.351Z,8.50
2022-09-21T22:52:10.977Z,8.50
2022-09-21T22:54:58.378Z,8.40
2022-09-21T22:57:46.568Z,8.40
2022-09-21T23:00:34.217Z,8.40
2022-09-21T23:03:22.304Z,8.50
2022-09-21T23:06:13.816Z,8.40
2022-09-21T23:09:07.765Z,8.30
2022-09-21T23:11:55.621Z,8.50
2022-09-21T23:14:43.229Z,8.30
2022-09-21T23:17:31.512Z,8.20
2022-09-21T23:20:19.259Z,8.30
2022-09-21T23:23:06.533Z,8.20
2022-09-21T23:26:06.386Z,8.10
2022-09-21T23:28:55.524Z,8.10
2022-09-21T23:31:45.558Z,8.20
2022-09-21T23:34:36.655Z,8.00
2022-09-21T23:37:24.278Z,8.10
2022-09-21T23:40:13.106Z,8.00
2022-09-21T23:43:02.311Z,8.00
2022-09-21T23:45:49.551Z,8.10
2022-09-21T23:48:38.049Z,8.00
2022-09-21T23:51:25.858Z,8.10
2022-09-21T23:54:15.308Z,8.50
2022-09-21T23:57:03.319Z,7.90
2022-09-21T23:59:53.050Z,7.80
